createdAt,value
2019-04-30T00:01:55.701Z,51.10
2019-04-30T00:04:37.621Z,51.70
2019-04-30T00:07:05.667Z,57.70
2019-04-30T00:09:37.439Z,63.83
2019-04-30T00:12:07.467Z,61.37
2019-04-30T00:14:41.155Z,55.20
2019-04-30T00:17:10.785Z,75.43
2019-04-30T00:19:41.378Z,55.97
2019-04-30T00:22:11.288Z,63.93
2019-04-30T00:24:46.745Z,55.97
2019-04-30T00:27:14.963Z,60.13
2019-04-30T00:29:45.738Z,65.03
2019-04-30T00:32:16.099Z,58.50
2019-04-30T00:34:47.983Z,60.73
2019-04-30T00:37:20.294Z,65.03
2019-04-30T00:39:51.341Z,67.37
2019-04-30T00:42:24.262Z,61.87
2019-04-30T00:45:06.651Z,59.33
2019-04-30T00:47:39.571Z,58.40
2019-04-30T00:50:15.109Z,67.70
2019-04-30T00:52:45.814Z,53.37
2019-04-30T00:55:16.002Z,64.23
2019-04-30T00:57:47.375Z,64.00
2019-04-30T01:00:25.340Z,59.90
2019-04-30T01:03:07.886Z,67.77
2019-04-30T01:05:33.102Z,59.27
2019-04-30T01:08:04.975Z,59.83
2019-04-30T01:10:34.883Z,63.47
2019-04-30T01:13:07.994Z,59.40
2019-04-30T01:15:36.645Z,68.83
2019-04-30T01:18:06.932Z,70.57
2019-04-30T01:20:38.643Z,61.47
2019-04-30T01:23:11.311Z,52.40
2019-04-30T01:25:43.221Z,69.77
2019-04-30T01:28:20.217Z,64.40
2019-04-30T01:30:49.550Z,62.50
2019-04-30T01:33:20.081Z,68.30
2019-04-30T01:35:50.163Z,72.87
2019-04-30T01:38:20.208Z,64.73
2019-04-30T01:40:51.147Z,61.93
2019-04-30T01:43:30.677Z,71.00
2019-04-30T01:45:53.042Z,66.70
2019-04-30T01:48:22.881Z,70.13
2019-04-30T01:50:52.840Z,77.23
2019-04-30T01:53:23.989Z,73.63
2019-04-30T01:56:09.165Z,67.73
2019-04-30T01:59:13.409Z,69.83
2019-04-30T02:01:45.640Z,76.33
2019-04-30T02:04:16.187Z,66.57
2019-04-30T02:06:46.209Z,69.20
2019-04-30T02:09:18.881Z,77.60
2019-04-30T02:11:48.833Z,67.60
2019-04-30T02:14:19.113Z,86.23
2019-04-30T02:16:49.406Z,77.27
2019-04-30T02:19:19.519Z,73.30
2019-04-30T02:21:49.394Z,79.33
2019-04-30T02:24:19.460Z,76.73
2019-04-30T02:26:49.328Z,85.50
2019-04-30T02:29:19.170Z,79.87
2019-04-30T02:31:50.347Z,75.20
2019-04-30T02:34:30.033Z,83.17
2019-04-30T02:37:10.125Z,72.43
2019-04-30T02:39:40.418Z,78.07
2019-04-30T02:42:13.300Z,80.20
2019-04-30T02:44:46.032Z,86.47
2019-04-30T02:47:16.566Z,100.10
2019-04-30T02:49:52.913Z,87.23
2019-04-30T02:52:20.019Z,81.43
2019-04-30T02:54:53.458Z,92.63
2019-04-30T02:57:23.690Z,93.13
2019-04-30T03:00:16.300Z,92.77
2019-04-30T03:02:46.346Z,109.40
2019-04-30T03:05:20.266Z,119.27
2019-04-30T03:07:50.305Z,111.03
2019-04-30T03:10:20.928Z,119.50
2019-04-30T03:12:50.715Z,114.10
2019-04-30T03:15:22.875Z,122.23
2019-04-30T03:18:04.556Z,116.00
2019-04-30T03:20:52.204Z,107.13
2019-04-30T03:23:22.016Z,105.93
2019-04-30T03:25:51.958Z,122.57
2019-04-30T03:28:22.281Z,116.67
2019-04-30T03:30:57.429Z,130.37
2019-04-30T03:33:23.785Z,113.70
2019-04-30T03:35:54.866Z,115.47
2019-04-30T03:38:25.739Z,108.53
2019-04-30T03:40:55.587Z,118.03
2019-04-30T03:43:25.479Z,127.77
2019-04-30T03:45:55.356Z,130.73
2019-04-30T03:48:25.499Z,121.80
2019-04-30T03:50:57.054Z,128.77
2019-04-30T03:53:29.689Z,125.80
2019-04-30T03:56:01.302Z,119.50
2019-04-30T03:58:30.309Z,138.80
2019-04-30T04:01:19.466Z,122.87
2019-04-30T04:04:06.138Z,119.60
2019-04-30T04:06:40.474Z,125.53
2019-04-30T04:09:25.021Z,111.90
2019-04-30T04:11:55.041Z,118.77
2019-04-30T04:14:29.492Z,121.47
2019-04-30T04:17:00.122Z,106.80
2019-04-30T04:19:30.033Z,124.43
2019-04-30T04:22:04.156Z,138.60
2019-04-30T04:24:33.774Z,121.87
2019-04-30T04:27:03.601Z,121.30
2019-04-30T04:29:33.696Z,130.50
2019-04-30T04:32:03.449Z,117.87
2019-04-30T04:34:33.530Z,119.10
2019-04-30T04:37:03.913Z,110.57
2019-04-30T04:39:34.347Z,129.53
2019-04-30T04:42:04.435Z,124.97
2019-04-30T04:44:34.263Z,121.27
2019-04-30T04:47:06.522Z,139.57
2019-04-30T04:49:36.622Z,116.40
2019-04-30T04:52:06.639Z,110.57
2019-04-30T04:54:36.438Z,130.27
2019-04-30T04:57:14.856Z,120.60
2019-04-30T04:59:39.735Z,126.27
2019-04-30T05:02:26.898Z,127.47
2019-04-30T05:04:57.244Z,123.67
2019-04-30T05:07:28.680Z,124.40
2019-04-30T05:09:59.206Z,130.17
2019-04-30T05:12:30.596Z,128.83
2019-04-30T05:15:00.609Z,122.23
2019-04-30T05:17:32.714Z,114.77
2019-04-30T05:20:02.553Z,118.30
2019-04-30T05:22:32.803Z,120.40
2019-04-30T05:25:04.175Z,110.17
2019-04-30T05:27:35.927Z,110.60
2019-04-30T05:30:09.675Z,112.23
2019-04-30T05:32:40.982Z,109.37
2019-04-30T05:35:13.017Z,111.90
2019-04-30T05:37:42.842Z,104.57
2019-04-30T05:40:14.272Z,115.70
2019-04-30T05:42:45.764Z,111.53
2019-04-30T05:45:19.060Z,110.57
2019-04-30T05:47:50.470Z,114.37
2019-04-30T05:50:21.840Z,109.90
2019-04-30T05:52:52.223Z,103.93
2019-04-30T05:55:24.931Z,102.67
2019-04-30T05:57:56.500Z,91.10
2019-04-30T06:00:30.505Z,98.03
2019-04-30T06:03:00.608Z,99.93
2019-04-30T06:05:30.399Z,100.07
2019-04-30T06:08:00.291Z,89.67
2019-04-30T06:11:09.323Z,97.07
2019-04-30T06:13:56.478Z,87.10
2019-04-30T06:16:29.677Z,102.07
2019-04-30T06:19:02.448Z,93.60
2019-04-30T06:21:32.520Z,84.67
2019-04-30T06:24:02.526Z,106.93
2019-04-30T06:26:32.549Z,98.13
2019-04-30T06:29:03.618Z,109.90
2019-04-30T06:31:37.469Z,94.40
2019-04-30T06:34:10.681Z,102.47
2019-04-30T06:36:51.059Z,98.50
2019-04-30T06:39:12.619Z,91.07
2019-04-30T06:41:43.491Z,105.43
2019-04-30T06:44:13.297Z,87.97
2019-04-30T06:46:43.991Z,100.13
2019-04-30T06:49:14.241Z,88.50
2019-04-30T06:51:46.566Z,85.97
2019-04-30T06:54:19.034Z,89.13
2019-04-30T06:56:51.194Z,83.00
2019-04-30T06:59:21.537Z,96.07
2019-04-30T07:01:53.206Z,97.47
2019-04-30T07:04:25.359Z,88.90
2019-04-30T07:06:58.924Z,91.30
2019-04-30T07:09:58.218Z,98.27
2019-04-30T07:12:49.708Z,82.73
2019-04-30T07:15:22.414Z,93.33
2019-04-30T07:17:59.075Z,79.77
2019-04-30T07:20:34.016Z,92.67
2019-04-30T07:23:04.297Z,85.27
2019-04-30T07:25:38.908Z,94.93
2019-04-30T07:28:09.119Z,91.73
2019-04-30T07:30:39.610Z,83.13
2019-04-30T07:33:09.659Z,87.97
2019-04-30T07:35:39.963Z,81.70
2019-04-30T07:38:09.869Z,81.27
2019-04-30T07:42:23.594Z,74.77
2019-04-30T07:45:26.569Z,75.63
2019-04-30T07:47:59.199Z,66.13
2019-04-30T07:50:31.275Z,76.83
2019-04-30T07:53:05.681Z,76.83
2019-04-30T07:55:36.845Z,78.70
2019-04-30T07:58:08.982Z,65.47
2019-04-30T08:00:40.226Z,69.37
2019-04-30T08:03:25.284Z,71.50
2019-04-30T08:05:59.632Z,74.73
2019-04-30T08:08:31.618Z,68.10
2019-04-30T08:11:02.043Z,66.37
2019-04-30T08:13:32.999Z,61.17
2019-04-30T08:16:09.779Z,54.10
2019-04-30T08:18:45.037Z,58.13
2019-04-30T08:21:18.994Z,55.00
2019-04-30T08:23:50.281Z,49.27
2019-04-30T08:26:24.726Z,49.03
2019-04-30T08:28:55.788Z,49.00
2019-04-30T08:31:26.288Z,46.80
2019-04-30T08:33:59.132Z,48.40
2019-04-30T08:36:33.189Z,53.77
2019-04-30T08:39:03.636Z,49.17
2019-04-30T08:41:39.192Z,49.87
2019-04-30T08:44:09.843Z,48.60
2019-04-30T08:46:40.805Z,40.90
2019-04-30T08:49:24.055Z,41.53
2019-04-30T08:51:50.255Z,60.97
2019-04-30T08:54:20.891Z,55.80
2019-04-30T08:56:51.142Z,46.17
2019-04-30T08:59:24.294Z,46.83
2019-04-30T09:01:54.211Z,50.20
2019-04-30T09:04:28.962Z,45.43
2019-04-30T09:07:00.183Z,45.37
2019-04-30T09:09:30.410Z,51.73
2019-04-30T09:12:00.825Z,54.83
2019-04-30T09:14:34.568Z,47.77
2019-04-30T09:17:09.321Z,42.83
2019-04-30T09:19:45.156Z,41.93
2019-04-30T09:22:21.610Z,55.20
2019-04-30T09:24:52.167Z,40.23
2019-04-30T09:27:25.019Z,43.43
2019-04-30T09:29:58.832Z,41.00
2019-04-30T09:32:32.394Z,46.17
2019-04-30T09:35:02.720Z,38.53
2019-04-30T09:37:33.336Z,40.03
2019-04-30T09:40:15.319Z,40.73
2019-04-30T09:42:39.762Z,33.40
2019-04-30T09:45:10.699Z,35.63
2019-04-30T09:47:42.067Z,40.63
2019-04-30T09:50:15.856Z,41.73
2019-04-30T09:52:49.764Z,45.43
2019-04-30T09:55:22.124Z,50.30
2019-04-30T09:57:55.454Z,47.63
2019-04-30T10:00:25.597Z,47.53
2019-04-30T10:03:04.352Z,42.30
2019-04-30T10:05:34.620Z,46.43
2019-04-30T10:08:05.527Z,48.70
2019-04-30T10:10:44.197Z,44.40
2019-04-30T10:13:14.340Z,43.33
2019-04-30T10:15:53.099Z,39.60
2019-04-30T10:18:26.354Z,40.87
2019-04-30T10:20:58.883Z,43.03
2019-04-30T10:23:39.172Z,45.93
2019-04-30T10:26:27.293Z,39.23
2019-04-30T10:29:16.799Z,43.20
2019-04-30T10:31:49.784Z,44.27
2019-04-30T10:34:20.596Z,41.70
2019-04-30T10:36:51.228Z,52.83
2019-04-30T10:39:21.928Z,39.00
2019-04-30T10:42:01.857Z,46.27
2019-04-30T10:44:37.306Z,41.37
2019-04-30T10:47:09.361Z,40.13
2019-04-30T10:49:39.801Z,43.70
2019-04-30T10:52:10.407Z,39.67
2019-04-30T10:54:42.659Z,39.27
2019-04-30T10:57:14.999Z,38.93
2019-04-30T10:59:46.279Z,38.27
2019-04-30T11:02:20.690Z,42.20
2019-04-30T11:04:51.150Z,38.10
2019-04-30T11:07:21.992Z,46.57
2019-04-30T11:09:59.690Z,41.00
2019-04-30T11:12:30.539Z,36.23
2019-04-30T11:15:01.698Z,40.70
2019-04-30T11:17:34.192Z,42.00
2019-04-30T11:20:05.290Z,42.07
2019-04-30T11:22:39.930Z,40.17
2019-04-30T11:25:13.526Z,40.93
2019-04-30T11:27:52.111Z,40.97
2019-04-30T11:30:57.080Z,48.10
2019-04-30T11:33:35.734Z,36.40
2019-04-30T11:36:12.248Z,49.03
2019-04-30T11:38:44.381Z,39.53
2019-04-30T11:41:29.755Z,50.67
2019-04-30T11:43:50.353Z,43.17
2019-04-30T11:46:52.217Z,32.63
2019-04-30T11:49:23.399Z,42.73
2019-04-30T11:51:54.591Z,34.63
2019-04-30T11:54:29.700Z,31.33
2019-04-30T11:57:02.227Z,30.30
2019-04-30T11:59:34.470Z,38.17
2019-04-30T12:02:29.467Z,36.70
2019-04-30T12:05:01.385Z,33.10
2019-04-30T12:07:55.900Z,40.57
2019-04-30T12:15:19.307Z,56.30
2019-04-30T12:17:52.692Z,42.30
2019-04-30T12:20:27.358Z,35.43
2019-04-30T12:23:00.991Z,42.83
2019-04-30T12:25:33.081Z,35.20
2019-04-30T12:28:04.036Z,38.00
2019-04-30T12:30:39.065Z,37.83
2019-04-30T12:33:09.174Z,40.63
2019-04-30T12:35:49.242Z,34.83
2019-04-30T12:38:24.376Z,49.37
2019-04-30T12:41:06.728Z,69.90
2019-04-30T12:43:41.598Z,42.60
2019-04-30T12:46:13.670Z,32.35
2019-04-30T12:48:59.528Z,34.90
2019-04-30T12:51:51.048Z,36.80
2019-04-30T12:54:39.842Z,35.33
2019-04-30T12:57:29.537Z,35.90
2019-04-30T13:00:12.523Z,40.63
2019-04-30T13:02:57.701Z,41.10
2019-04-30T13:05:44.718Z,40.43
2019-04-30T13:08:16.021Z,37.03
2019-04-30T13:10:47.891Z,31.63
2019-04-30T13:13:23.174Z,35.37
2019-04-30T13:15:55.092Z,32.13
2019-04-30T13:18:25.521Z,46.70
2019-04-30T13:21:47.631Z,39.40
2019-04-30T13:27:31.389Z,34.83
2019-04-30T13:30:30.212Z,30.53
2019-04-30T13:33:14.644Z,26.57
2019-04-30T13:35:52.400Z,76.47
2019-04-30T13:38:29.218Z,30.53
2019-04-30T13:41:10.931Z,35.67
2019-04-30T13:44:02.879Z,30.93
2019-04-30T13:46:33.384Z,33.50
2019-04-30T13:49:06.754Z,38.20
2019-04-30T13:51:52.037Z,28.43
2019-04-30T13:54:35.407Z,35.07
2019-04-30T13:57:09.109Z,34.10
2019-04-30T13:59:39.886Z,42.53
2019-04-30T14:02:10.612Z,27.10
2019-04-30T14:04:56.338Z,28.13
2019-04-30T14:08:04.769Z,28.60
2019-04-30T14:10:39.346Z,33.93
2019-04-30T14:13:13.461Z,28.90
2019-04-30T14:15:45.077Z,31.57
2019-04-30T14:18:28.490Z,33.43
2019-04-30T14:20:52.667Z,42.47
2019-04-30T14:23:31.263Z,34.47
2019-04-30T14:26:04.789Z,27.50
2019-04-30T14:28:35.643Z,38.83
2019-04-30T14:31:07.588Z,34.57
2019-04-30T14:33:40.020Z,34.77
2019-04-30T14:36:20.371Z,33.50
2019-04-30T14:38:52.066Z,28.83
2019-04-30T14:41:24.563Z,41.70
2019-04-30T14:44:03.851Z,36.10
2019-04-30T14:46:51.116Z,35.13
2019-04-30T14:50:04.382Z,39.93
2019-04-30T14:52:33.882Z,28.87
2019-04-30T14:56:09.543Z,49.23
2019-04-30T15:02:29.441Z,31.57
2019-04-30T15:05:22.914Z,43.50
2019-04-30T15:07:55.255Z,33.07
2019-04-30T15:11:09.107Z,36.03
2019-04-30T15:13:41.302Z,37.70
2019-04-30T15:16:21.103Z,30.03
2019-04-30T15:18:58.383Z,34.73
2019-04-30T15:21:32.114Z,38.23
2019-04-30T15:24:39.170Z,35.30
2019-04-30T15:27:15.013Z,36.87
2019-04-30T15:29:45.956Z,34.10
2019-04-30T15:32:20.053Z,36.97
2019-04-30T15:34:51.191Z,39.63
2019-04-30T15:37:23.776Z,35.37
2019-04-30T15:39:56.341Z,36.10
2019-04-30T15:42:31.098Z,34.73
2019-04-30T15:45:02.126Z,49.33
2019-04-30T15:47:33.389Z,47.43
2019-04-30T15:50:15.918Z,37.33
2019-04-30T15:52:53.524Z,43.37
2019-04-30T15:55:37.058Z,51.10
2019-04-30T15:58:22.886Z,44.23
2019-04-30T16:01:13.233Z,47.83
2019-04-30T16:03:46.300Z,53.40
2019-04-30T16:06:29.017Z,55.07
2019-04-30T16:09:04.745Z,51.23
2019-04-30T16:11:51.104Z,42.33
2019-04-30T16:14:37.094Z,52.50
2019-04-30T16:17:21.074Z,48.13
2019-04-30T16:19:51.515Z,48.23
2019-04-30T16:22:22.035Z,41.43
2019-04-30T16:24:54.566Z,53.00
2019-04-30T16:27:27.297Z,55.63
2019-04-30T16:29:59.517Z,46.23
2019-04-30T16:32:29.881Z,50.53
2019-04-30T16:35:00.247Z,54.73
2019-04-30T16:37:31.702Z,69.80
2019-04-30T16:40:59.800Z,50.90
2019-04-30T16:43:39.157Z,49.53
2019-04-30T16:46:14.954Z,54.27
2019-04-30T16:48:54.535Z,47.33
2019-04-30T16:51:39.185Z,51.53
2019-04-30T16:54:12.208Z,46.73
2019-04-30T16:56:56.426Z,63.73
2019-04-30T16:59:44.364Z,54.10
2019-04-30T17:02:24.751Z,51.47
2019-04-30T17:05:40.638Z,62.20
2019-04-30T17:08:20.617Z,65.87
2019-04-30T17:11:23.623Z,60.20
2019-04-30T17:14:14.812Z,70.47
2019-04-30T17:16:51.989Z,73.23
2019-04-30T17:19:24.347Z,65.80
2019-04-30T17:22:03.196Z,74.30
2019-04-30T17:24:36.480Z,60.43
2019-04-30T17:27:19.377Z,69.93
2019-04-30T17:29:56.883Z,62.93
2019-04-30T17:32:43.280Z,73.57
2019-04-30T17:35:19.063Z,69.63
2019-04-30T17:37:50.970Z,67.57
2019-04-30T17:40:31.052Z,87.40
2019-04-30T17:43:07.100Z,114.83
2019-04-30T17:45:46.664Z,83.40
2019-04-30T17:48:23.391Z,92.23
2019-04-30T17:51:02.044Z,90.77
2019-04-30T17:53:34.113Z,98.27
2019-04-30T17:56:10.643Z,68.35
2019-04-30T17:58:41.425Z,64.40
2019-04-30T18:01:13.791Z,69.93
2019-04-30T18:03:58.695Z,82.27
2019-04-30T18:06:46.295Z,75.90
2019-04-30T18:09:19.500Z,72.57
2019-04-30T18:11:55.379Z,88.63
2019-04-30T18:14:31.796Z,108.03
2019-04-30T18:17:20.328Z,70.40
2019-04-30T18:20:19.171Z,106.73
2019-04-30T18:23:25.193Z,135.63
2019-04-30T18:26:18.588Z,74.23
2019-04-30T18:28:55.968Z,86.90
2019-04-30T18:32:06.684Z,101.27
2019-04-30T18:35:11.534Z,79.23
2019-04-30T18:37:58.567Z,70.73
2019-04-30T18:40:39.795Z,82.77
2019-04-30T18:43:20.385Z,71.20
2019-04-30T18:45:51.731Z,103.80
2019-04-30T18:48:32.741Z,90.00
2019-04-30T18:51:23.470Z,68.93
2019-04-30T18:53:54.205Z,102.20
2019-04-30T18:56:32.495Z,85.20
2019-04-30T18:59:24.137Z,89.63
2019-04-30T19:02:05.926Z,151.90
2019-04-30T19:04:49.566Z,105.33
2019-04-30T19:07:35.552Z,93.93
2019-04-30T19:10:38.356Z,87.40
2019-04-30T19:13:36.871Z,84.50
2019-04-30T19:16:49.835Z,83.70
2019-04-30T19:19:47.955Z,129.63
2019-04-30T19:22:25.323Z,106.33
2019-04-30T19:25:18.949Z,88.23
2019-04-30T19:28:09.063Z,104.40
2019-04-30T19:30:55.757Z,74.00
2019-04-30T19:33:41.330Z,229.33
2019-04-30T19:36:20.801Z,140.07
2019-04-30T19:38:54.189Z,163.80
2019-04-30T19:41:31.601Z,112.90
2019-04-30T19:44:20.640Z,104.67
2019-04-30T19:47:14.303Z,79.43
2019-04-30T19:49:48.861Z,102.10
2019-04-30T19:52:35.153Z,114.83
2019-04-30T19:55:16.510Z,101.40
2019-04-30T19:57:51.226Z,89.67
2019-04-30T20:00:29.082Z,145.97
2019-04-30T20:03:06.156Z,102.97
2019-04-30T20:05:40.913Z,94.80
2019-04-30T20:08:14.102Z,115.70
2019-04-30T20:10:53.283Z,142.47
2019-04-30T20:13:36.814Z,187.87
2019-04-30T20:16:15.154Z,118.87
2019-04-30T20:18:59.210Z,160.53
2019-04-30T20:21:53.912Z,184.70
2019-04-30T20:24:30.972Z,197.93
2019-04-30T20:27:07.443Z,174.00
2019-04-30T20:29:51.757Z,144.10
2019-04-30T20:32:36.124Z,125.87
2019-04-30T20:35:15.533Z,121.53
2019-04-30T20:38:15.914Z,157.63
2019-04-30T20:41:09.213Z,97.97
2019-04-30T20:43:44.121Z,96.10
2019-04-30T20:46:31.535Z,165.47
2019-04-30T20:49:06.820Z,131.70
2019-04-30T20:52:05.042Z,227.80
2019-04-30T20:54:49.974Z,106.63
2019-04-30T20:57:39.521Z,278.43
2019-04-30T21:00:26.230Z,130.83
2019-04-30T21:03:00.803Z,141.30
2019-04-30T21:05:31.270Z,111.57
2019-04-30T21:08:06.355Z,130.20
2019-04-30T21:10:36.753Z,120.03
2019-04-30T21:13:24.275Z,277.70
2019-04-30T21:16:00.955Z,386.57
2019-04-30T21:18:34.722Z,442.97
2019-04-30T21:21:16.319Z,279.17
2019-04-30T21:23:49.163Z,128.90
2019-04-30T21:26:34.092Z,226.70
2019-04-30T21:29:16.031Z,265.43
2019-04-30T21:32:06.296Z,145.67
2019-04-30T21:35:06.368Z,273.60
2019-04-30T21:37:45.461Z,111.03
2019-04-30T21:40:31.362Z,108.47
2019-04-30T21:43:04.719Z,133.57
2019-04-30T21:45:35.999Z,330.60
2019-04-30T21:48:15.567Z,241.80
2019-04-30T21:51:00.296Z,315.07
2019-04-30T21:53:36.239Z,176.27
2019-04-30T21:56:19.326Z,290.67
2019-04-30T21:58:58.810Z,696.80
2019-04-30T22:01:41.310Z,153.83
2019-04-30T22:04:19.933Z,97.20
2019-04-30T22:06:54.282Z,146.97
2019-04-30T22:09:28.750Z,137.63
2019-04-30T22:12:05.553Z,168.30
2019-04-30T22:14:36.499Z,95.30
2019-04-30T22:17:19.370Z,118.73
2019-04-30T22:19:56.572Z,105.20
2019-04-30T22:22:33.375Z,127.37
2019-04-30T22:25:04.303Z,221.10
2019-04-30T22:27:34.327Z,154.97
2019-04-30T22:30:05.509Z,127.97
2019-04-30T22:32:39.746Z,99.10
2019-04-30T22:35:36.542Z,269.87
2019-04-30T22:38:11.866Z,207.80
2019-04-30T22:40:50.607Z,109.30
2019-04-30T22:43:25.848Z,132.47
2019-04-30T22:46:10.829Z,125.80
2019-04-30T22:48:40.824Z,196.43
2019-04-30T22:51:11.456Z,93.70
2019-04-30T22:53:46.271Z,142.43
2019-04-30T22:56:16.438Z,152.53
2019-04-30T22:58:47.253Z,784.67
2019-04-30T23:01:37.654Z,489.90
2019-04-30T23:04:18.050Z,121.30
2019-04-30T23:06:52.186Z,392.23
2019-04-30T23:09:25.172Z,159.13
2019-04-30T23:11:56.196Z,214.67
2019-04-30T23:14:27.382Z,126.20
2019-04-30T23:16:58.535Z,108.63
2019-04-30T23:19:38.212Z,189.03
2019-04-30T23:22:27.538Z,133.03
2019-04-30T23:25:06.490Z,114.77
2019-04-30T23:27:38.912Z,120.63
2019-04-30T23:30:13.174Z,156.73
2019-04-30T23:32:43.259Z,160.53
2019-04-30T23:35:14.563Z,122.57
2019-04-30T23:37:45.085Z,145.10
2019-04-30T23:40:28.249Z,427.10
2019-04-30T23:43:00.621Z,186.00
2019-04-30T23:45:30.664Z,317.63
2019-04-30T23:48:06.294Z,265.07
2019-04-30T23:50:37.091Z,179.03
2019-04-30T23:53:08.660Z,381.13
2019-04-30T23:55:38.711Z,183.50
2019-04-30T23:58:09.452Z,143.43
